createdAt,value
2023-07-02T00:00:02.689Z,100723.38
2023-07-02T00:02:35.589Z,100708.06
2023-07-02T00:05:02.563Z,100700.47
2023-07-02T00:07:29.639Z,100699.63
2023-07-02T00:09:56.443Z,100715.78
2023-07-02T00:12:23.363Z,100743.78
2023-07-02T00:14:50.266Z,100783.09
2023-07-02T00:17:16.929Z,100799.94
2023-07-02T00:19:43.573Z,100829.56
2023-07-02T00:22:10.737Z,100836.16
2023-07-02T00:24:39.519Z,100866.50
2023-07-02T00:27:06.231Z,100882.88
2023-07-02T00:29:32.875Z,100889.19
2023-07-02T00:31:59.646Z,100910.22
2023-07-02T00:34:27.677Z,100912.13
2023-07-02T00:36:54.380Z,100917.19
2023-07-02T00:39:21.410Z,100933.22
2023-07-02T00:41:48.045Z,100932.47
2023-07-02T00:44:15.051Z,100934.34
2023-07-02T00:46:42.116Z,100949.59
2023-07-02T00:49:10.809Z,100956.41
2023-07-02T00:51:38.521Z,100955.88
2023-07-02T00:54:08.087Z,100962.09
2023-07-02T00:56:34.788Z,100961.28
2023-07-02T00:59:02.141Z,100970.72
2023-07-02T01:01:29.809Z,100977.22
2023-07-02T01:04:04.338Z,100979.91
2023-07-02T01:10:21.746Z,101000.34
2023-07-02T01:12:49.495Z,101004.66
2023-07-02T01:15:16.348Z,101006.53
2023-07-02T01:17:43.678Z,101007.31
2023-07-02T01:20:12.945Z,101018.59
2023-07-02T01:22:41.288Z,101017.56
2023-07-02T01:25:10.487Z,101019.44
2023-07-02T01:27:41.082Z,101018.59
2023-07-02T01:30:09.890Z,101017.72
2023-07-02T01:32:36.747Z,101026.13
2023-07-02T01:35:03.612Z,101025.25
2023-07-02T01:37:38.199Z,101022.13
2023-07-02T01:40:08.149Z,101032.22
2023-07-02T01:42:35.256Z,101024.19
2023-07-02T01:45:04.073Z,101029.16
2023-07-02T01:47:30.874Z,101034.66
2023-07-02T01:49:57.997Z,101037.34
2023-07-02T01:52:24.585Z,101039.41
2023-07-02T01:54:53.501Z,101030.44
2023-07-02T01:57:20.321Z,101034.56
2023-07-02T01:59:46.939Z,101037.75
2023-07-02T02:02:13.572Z,101035.78
2023-07-02T02:04:40.333Z,101046.09
2023-07-02T02:07:06.937Z,101038.72
2023-07-02T02:09:33.673Z,101042.44
2023-07-02T02:12:00.465Z,101047.59
2023-07-02T02:14:27.093Z,101047.22
2023-07-02T02:16:54.014Z,101062.56
2023-07-02T02:19:20.657Z,101061.38
2023-07-02T02:21:47.309Z,101056.47
2023-07-02T02:24:13.955Z,101060.34
2023-07-02T02:26:40.739Z,101056.91
2023-07-02T02:29:07.365Z,101059.41
2023-07-02T02:31:34.022Z,101072.53
2023-07-02T02:34:00.798Z,101076.41
2023-07-02T02:36:27.369Z,101085.69
2023-07-02T02:38:54.077Z,101076.47
2023-07-02T02:41:20.692Z,101075.63
2023-07-02T02:43:47.376Z,101086.13
2023-07-02T02:46:24.178Z,101083.06
2023-07-02T02:48:51.463Z,101074.72
2023-07-02T02:51:18.199Z,101086.22
2023-07-02T02:53:44.787Z,101087.88
2023-07-02T02:56:11.391Z,101094.66
2023-07-02T02:58:38.058Z,101088.91
2023-07-02T03:01:11.577Z,101092.41
2023-07-02T03:03:46.221Z,101092.63
2023-07-02T03:06:14.696Z,101092.84
2023-07-02T03:08:41.660Z,101087.75
2023-07-02T03:11:08.515Z,101086.97
2023-07-02T03:13:35.187Z,101084.94
2023-07-02T03:16:01.851Z,101083.94
2023-07-02T03:18:28.495Z,101074.72
2023-07-02T03:20:55.192Z,101086.78
2023-07-02T03:23:21.915Z,101093.78
2023-07-02T03:25:48.739Z,101086.78
2023-07-02T03:28:15.508Z,101093.56
2023-07-02T03:30:42.099Z,101092.53
2023-07-02T03:33:10.048Z,101082.28
2023-07-02T03:35:36.711Z,101094.97
2023-07-02T03:38:05.151Z,101097.28
2023-07-02T03:40:31.799Z,101107.53
2023-07-02T03:42:58.323Z,101103.22
2023-07-02T03:45:24.926Z,101099.75
2023-07-02T03:47:51.704Z,101101.22
2023-07-02T03:50:19.179Z,101106.38
2023-07-02T03:52:45.825Z,101109.81
2023-07-02T03:55:13.178Z,101105.75
2023-07-02T03:57:39.871Z,101113.75
2023-07-02T04:00:07.493Z,101103.50
2023-07-02T04:02:34.154Z,101110.47
2023-07-02T04:05:01.066Z,101110.47
2023-07-02T04:07:27.714Z,101113.97
2023-07-02T04:09:54.258Z,101115.19
2023-07-02T04:12:20.957Z,101122.34
2023-07-02T04:14:47.628Z,101116.00
2023-07-02T04:17:16.678Z,101108.63
2023-07-02T04:19:43.330Z,101102.06
2023-07-02T04:22:10.083Z,101119.25
2023-07-02T04:24:36.810Z,101125.63
2023-07-02T04:27:45.117Z,101125.00
2023-07-02T04:29:50.636Z,101130.31
2023-07-02T04:32:17.389Z,101123.56
2023-07-02T04:34:44.249Z,101135.88
2023-07-02T04:37:12.460Z,101137.28
2023-07-02T04:39:39.130Z,101137.09
2023-07-02T04:42:06.069Z,101145.91
2023-07-02T04:44:32.731Z,101145.09
2023-07-02T04:47:00.321Z,101134.81
2023-07-02T04:49:27.067Z,101155.28
2023-07-02T04:51:57.610Z,101131.06
2023-07-02T04:54:24.248Z,101158.88
2023-07-02T04:56:51.763Z,101160.91
2023-07-02T04:59:20.755Z,101163.31
2023-07-02T05:01:47.576Z,101157.75
2023-07-02T05:04:14.390Z,101168.56
2023-07-02T05:06:41.791Z,101164.63
2023-07-02T05:09:08.611Z,101160.53
2023-07-02T05:11:35.266Z,101165.34
2023-07-02T05:14:01.892Z,101175.75
2023-07-02T05:16:28.612Z,101179.81
2023-07-02T05:18:55.206Z,101168.91
2023-07-02T05:21:23.851Z,101183.06
2023-07-02T05:23:50.600Z,101179.72
2023-07-02T05:26:17.375Z,101183.81
2023-07-02T05:28:45.536Z,101190.38
2023-07-02T05:31:15.497Z,101191.19
2023-07-02T05:33:42.129Z,101183.63
2023-07-02T05:36:08.879Z,101202.66
2023-07-02T05:38:35.415Z,101205.28
2023-07-02T05:41:06.111Z,101195.78
2023-07-02T05:43:32.628Z,101207.34
2023-07-02T05:46:03.351Z,101209.53
2023-07-02T05:48:30.090Z,101210.00
2023-07-02T05:50:58.378Z,101210.00
2023-07-02T05:53:25.036Z,101219.91
2023-07-02T05:55:55.328Z,101223.09
2023-07-02T05:58:24.901Z,101219.56
2023-07-02T06:00:58.702Z,101214.97
2023-07-02T06:03:25.596Z,101225.16
2023-07-02T06:05:52.949Z,101221.34
2023-07-02T06:08:19.804Z,101216.66
2023-07-02T06:10:48.346Z,101231.56
2023-07-02T06:13:16.319Z,101233.03
2023-07-02T06:15:43.771Z,101233.69
2023-07-02T06:18:12.160Z,101232.50
2023-07-02T06:20:39.781Z,101237.34
2023-07-02T06:23:06.399Z,101239.69
2023-07-02T06:25:33.168Z,101233.53
2023-07-02T06:28:00.490Z,101243.94
2023-07-02T06:30:27.644Z,101248.25
2023-07-02T06:32:55.292Z,101253.31
2023-07-02T06:35:22.250Z,101256.47
2023-07-02T06:37:48.909Z,101245.31
2023-07-02T06:40:15.860Z,101248.53
2023-07-02T06:42:42.429Z,101252.03
2023-07-02T06:45:10.370Z,101245.97
2023-07-02T06:47:37.059Z,101251.00
2023-07-02T06:50:03.821Z,101249.13
2023-07-02T06:52:31.593Z,101262.06
2023-07-02T06:54:58.756Z,101261.41
2023-07-02T06:57:25.583Z,101264.88
2023-07-02T06:59:52.652Z,101270.94
2023-07-02T07:02:19.652Z,101281.09
2023-07-02T07:04:46.255Z,101266.66
2023-07-02T07:07:13.160Z,101271.50
2023-07-02T07:09:43.583Z,101265.66
2023-07-02T07:12:11.957Z,101276.56
2023-07-02T07:14:38.856Z,101271.03
2023-07-02T07:17:06.273Z,101254.38
2023-07-02T07:19:33.082Z,101273.72
2023-07-02T07:21:59.911Z,101274.63
2023-07-02T07:24:27.668Z,101278.16
2023-07-02T07:26:54.220Z,101282.78
2023-07-02T07:29:22.388Z,101286.63
2023-07-02T07:31:49.135Z,101273.25
2023-07-02T07:34:16.199Z,101268.91
2023-07-02T07:36:43.051Z,101282.84
2023-07-02T07:39:09.742Z,101284.16
2023-07-02T07:41:36.944Z,101274.69
2023-07-02T07:44:03.638Z,101276.50
2023-07-02T07:46:30.326Z,101292.81
2023-07-02T07:48:56.971Z,101289.59
2023-07-02T07:51:26.499Z,101287.66
2023-07-02T07:53:56.692Z,101290.78
2023-07-02T07:56:23.375Z,101294.59
2023-07-02T07:58:50.126Z,101295.44
2023-07-02T08:01:17.518Z,101285.41
2023-07-02T08:03:44.190Z,101289.16
2023-07-02T08:06:10.767Z,101284.03
2023-07-02T08:08:37.996Z,101287.16
2023-07-02T08:11:04.793Z,101296.38
2023-07-02T08:13:31.886Z,101299.16
2023-07-02T08:15:58.769Z,101293.94
2023-07-02T08:18:25.411Z,101294.16
2023-07-02T08:20:52.092Z,101298.53
2023-07-02T08:23:18.676Z,101291.50
2023-07-02T08:25:45.667Z,101313.44
2023-07-02T08:28:12.339Z,101316.38
2023-07-02T08:30:39.118Z,101303.13
2023-07-02T08:33:06.057Z,101306.09
2023-07-02T08:35:32.689Z,101322.03
2023-07-02T08:37:59.333Z,101320.06
2023-07-02T08:40:25.876Z,101320.53
2023-07-02T08:42:52.607Z,101320.19
2023-07-02T08:45:21.024Z,101315.25
2023-07-02T08:47:48.361Z,101324.63
2023-07-02T08:50:15.334Z,101329.66
2023-07-02T08:52:42.183Z,101331.44
2023-07-02T08:55:09.030Z,101336.06
2023-07-02T08:57:38.642Z,101335.31
2023-07-02T09:00:09.890Z,101348.91
2023-07-02T09:02:36.557Z,101345.25
2023-07-02T09:05:04.540Z,101332.94
2023-07-02T09:07:31.916Z,101344.53
2023-07-02T09:09:58.531Z,101344.91
2023-07-02T09:12:29.832Z,101342.50
2023-07-02T09:15:07.884Z,101332.47
2023-07-02T09:17:37.540Z,101335.97
2023-07-02T09:20:12.911Z,101338.94
2023-07-02T09:22:57.685Z,101338.41
2023-07-02T09:25:38.133Z,101331.91
2023-07-02T09:28:28.230Z,101331.31
2023-07-02T09:31:10.936Z,101337.53
2023-07-02T09:33:40.859Z,101335.34
2023-07-02T09:36:10.127Z,101325.66
2023-07-02T09:38:37.059Z,101339.19
2023-07-02T09:41:03.925Z,101334.94
2023-07-02T09:43:32.471Z,101335.94
2023-07-02T09:45:59.217Z,101344.97
2023-07-02T09:48:29.577Z,101348.97
2023-07-02T09:50:59.273Z,101344.34
2023-07-02T09:53:28.441Z,101345.97
2023-07-02T09:55:56.480Z,101349.22
2023-07-02T09:58:23.304Z,101350.34
2023-07-02T10:00:50.660Z,101360.94
2023-07-02T10:03:17.633Z,101363.25
2023-07-02T10:05:44.548Z,101368.72
2023-07-02T10:08:18.028Z,101363.94
2023-07-02T10:10:45.094Z,101361.41
2023-07-02T10:13:13.897Z,101360.59
2023-07-02T10:15:41.277Z,101366.84
2023-07-02T10:18:09.590Z,101364.97
2023-07-02T10:20:39.605Z,101363.59
2023-07-02T10:23:07.713Z,101362.78
2023-07-02T10:25:39.324Z,101370.63
2023-07-02T10:28:17.464Z,101373.59
2023-07-02T10:30:44.207Z,101379.56
2023-07-02T10:33:15.434Z,101363.69
2023-07-02T10:35:45.807Z,101379.13
2023-07-02T10:38:17.149Z,101365.34
2023-07-02T10:40:45.841Z,101369.66
2023-07-02T10:43:12.784Z,101378.41
2023-07-02T10:45:39.661Z,101374.59
2023-07-02T10:48:15.330Z,101375.44
2023-07-02T10:50:42.188Z,101371.56
2023-07-02T10:53:17.186Z,101371.66
2023-07-02T10:55:44.409Z,101372.59
2023-07-02T10:58:12.027Z,101373.94
2023-07-02T11:00:45.779Z,101373.22
2023-07-02T11:03:23.202Z,101366.34
2023-07-02T11:05:51.158Z,101377.78
2023-07-02T11:08:25.807Z,101361.78
2023-07-02T11:11:04.409Z,101361.41
2023-07-02T11:13:31.003Z,101365.97
2023-07-02T11:15:58.739Z,101384.69
2023-07-02T11:18:25.386Z,101369.25
2023-07-02T11:20:53.401Z,101382.31
2023-07-02T11:23:26.482Z,101376.59
2023-07-02T11:25:58.690Z,101381.72
2023-07-02T11:28:26.391Z,101373.28
2023-07-02T11:30:53.144Z,101375.94
2023-07-02T11:33:19.827Z,101388.81
2023-07-02T11:35:46.704Z,101382.00
2023-07-02T11:38:14.209Z,101374.56
2023-07-02T11:40:41.009Z,101379.75
2023-07-02T11:43:07.876Z,101381.09
2023-07-02T11:45:34.502Z,101375.59
2023-07-02T11:48:01.152Z,101369.84
2023-07-02T11:50:28.209Z,101363.38
2023-07-02T11:52:54.933Z,101368.91
2023-07-02T11:55:21.895Z,101372.13
2023-07-02T11:57:50.524Z,101377.84
2023-07-02T12:00:17.410Z,101370.56
2023-07-02T12:02:44.692Z,101378.53
2023-07-02T12:05:14.037Z,101384.28
2023-07-02T12:07:40.731Z,101380.09
2023-07-02T12:10:08.886Z,101383.69
2023-07-02T12:12:35.560Z,101380.72
2023-07-02T12:15:02.275Z,101368.72
2023-07-02T12:17:28.846Z,101375.00
2023-07-02T12:19:55.489Z,101375.53
2023-07-02T12:22:23.628Z,101379.34
2023-07-02T12:24:51.593Z,101377.97
2023-07-02T12:27:18.206Z,101371.44
2023-07-02T12:29:44.914Z,101375.38
2023-07-02T12:32:11.629Z,101365.72
2023-07-02T12:34:38.288Z,101381.47
2023-07-02T12:37:05.160Z,101388.25
2023-07-02T12:39:32.278Z,101382.59
2023-07-02T12:41:58.892Z,101378.97
2023-07-02T12:44:52.556Z,101382.25
2023-07-02T12:47:19.212Z,101362.44
2023-07-02T12:49:46.435Z,101343.28
2023-07-02T12:52:13.723Z,101339.72
2023-07-02T12:54:40.488Z,101342.41
2023-07-02T12:57:07.442Z,101344.63
2023-07-02T12:59:34.057Z,101355.13
2023-07-02T13:02:02.880Z,101337.56
2023-07-02T13:04:29.690Z,101352.19
2023-07-02T13:06:58.856Z,101351.69
2023-07-02T13:09:26.600Z,101352.19
2023-07-02T13:11:53.304Z,101367.41
2023-07-02T13:14:20.036Z,101358.75
2023-07-02T13:16:46.843Z,101367.44
2023-07-02T13:19:14.429Z,101370.41
2023-07-02T13:21:41.035Z,101344.88
2023-07-02T13:24:07.684Z,101360.06
2023-07-02T13:26:34.354Z,101370.06
2023-07-02T13:29:01.648Z,101356.81
2023-07-02T13:31:28.447Z,101359.84
2023-07-02T13:33:55.066Z,101363.06
2023-07-02T13:36:21.756Z,101357.41
2023-07-02T13:38:48.319Z,101362.44
2023-07-02T13:41:14.898Z,101346.69
2023-07-02T13:43:41.577Z,101351.94
2023-07-02T13:46:08.330Z,101341.09
2023-07-02T13:48:36.133Z,101344.59
2023-07-02T13:53:43.146Z,101351.84
2023-07-02T13:56:09.783Z,101343.81
2023-07-02T13:58:57.906Z,101339.69
2023-07-02T14:01:25.408Z,101344.72
2023-07-02T14:03:52.712Z,101333.84
2023-07-02T14:06:19.447Z,101342.16
2023-07-02T14:08:49.020Z,101339.78
2023-07-02T14:11:16.458Z,101331.56
2023-07-02T14:13:43.165Z,101327.03
2023-07-02T14:16:09.761Z,101337.53
2023-07-02T14:18:36.865Z,101330.50
2023-07-02T14:21:04.603Z,101326.72
2023-07-02T14:23:31.261Z,101340.22
2023-07-02T14:25:57.887Z,101341.28
2023-07-02T14:28:27.178Z,101322.53
2023-07-02T14:31:01.509Z,101344.72
2023-07-02T14:33:30.306Z,101317.75
2023-07-02T14:35:57.103Z,101318.34
2023-07-02T14:38:24.424Z,101318.88
2023-07-02T14:40:51.806Z,101327.63
2023-07-02T14:43:21.651Z,101324.34
2023-07-02T14:45:53.390Z,101323.25
2023-07-02T14:48:20.812Z,101317.31
2023-07-02T14:50:52.809Z,101315.13
2023-07-02T14:53:20.680Z,101313.81
2023-07-02T14:55:47.904Z,101308.63
2023-07-02T14:58:17.204Z,101311.38
2023-07-02T15:00:45.830Z,101322.53
2023-07-02T15:03:12.871Z,101320.47
2023-07-02T15:05:40.874Z,101323.16
2023-07-02T15:08:09.171Z,101311.63
2023-07-02T15:10:38.734Z,101327.75
2023-07-02T15:13:08.058Z,101322.56
2023-07-02T15:15:37.252Z,101329.69
2023-07-02T15:18:05.157Z,101328.72
2023-07-02T15:20:32.245Z,101321.22
2023-07-02T15:22:58.798Z,101327.75
2023-07-02T15:25:25.591Z,101319.59
2023-07-02T15:27:52.616Z,101316.34
2023-07-02T15:30:19.600Z,101320.50
2023-07-02T15:32:46.251Z,101323.06
2023-07-02T15:35:12.956Z,101306.44
2023-07-02T15:37:43.376Z,101311.66
2023-07-02T15:40:10.934Z,101309.66
2023-07-02T15:42:37.657Z,101304.66
2023-07-02T15:45:05.231Z,101308.75
2023-07-02T15:47:33.746Z,101298.41
2023-07-02T15:50:03.178Z,101309.91
2023-07-02T15:52:29.901Z,101306.25
2023-07-02T15:54:56.487Z,101301.09
2023-07-02T15:57:23.139Z,101306.72
2023-07-02T15:59:52.015Z,101299.88
2023-07-02T16:02:18.622Z,101301.91
2023-07-02T16:04:47.718Z,101301.47
2023-07-02T16:07:16.016Z,101305.91
2023-07-02T16:09:42.961Z,101286.69
2023-07-02T16:12:09.781Z,101296.44
2023-07-02T16:14:38.446Z,101299.41
2023-07-02T16:17:06.503Z,101293.75
2023-07-02T16:19:33.349Z,101293.53
2023-07-02T16:22:00.617Z,101302.78
2023-07-02T16:24:32.538Z,101288.63
2023-07-02T16:27:00.927Z,101290.75
2023-07-02T16:29:31.424Z,101290.47
2023-07-02T16:31:59.769Z,101291.03
2023-07-02T16:34:29.388Z,101297.03
2023-07-02T16:36:56.275Z,101296.91
2023-07-02T16:39:23.695Z,101293.56
2023-07-02T16:41:50.952Z,101295.53
2023-07-02T16:44:21.225Z,101291.22
2023-07-02T16:46:50.145Z,101300.22
2023-07-02T16:49:18.702Z,101302.63
2023-07-02T16:51:46.548Z,101304.16
2023-07-02T16:54:16.505Z,101303.78
2023-07-02T16:56:46.725Z,101294.25
2023-07-02T16:59:18.065Z,101309.50
2023-07-02T17:01:47.470Z,101313.63
2023-07-02T17:04:15.915Z,101307.22
2023-07-02T17:06:52.323Z,101309.09
2023-07-02T17:09:26.266Z,101305.72
2023-07-02T17:11:53.972Z,101298.22
2023-07-02T17:14:22.202Z,101297.06
2023-07-02T17:16:53.831Z,101300.88
2023-07-02T17:19:34.862Z,101296.91
2023-07-02T17:22:08.697Z,101305.69
2023-07-02T17:24:38.146Z,101294.84
2023-07-02T17:27:05.064Z,101306.09
2023-07-02T17:29:32.505Z,101288.31
2023-07-02T17:32:01.986Z,101293.72
2023-07-02T17:34:30.033Z,101304.13
2023-07-02T17:36:59.774Z,101283.22
2023-07-02T17:39:27.912Z,101291.38
2023-07-02T17:41:56.880Z,101282.97
2023-07-02T17:44:29.725Z,101287.84
2023-07-02T17:46:59.380Z,101286.75
2023-07-02T17:49:28.945Z,101287.38
2023-07-02T17:51:55.728Z,101277.19
2023-07-02T17:54:23.680Z,101283.00
2023-07-02T17:56:52.468Z,101271.75
2023-07-02T17:59:28.066Z,101278.00
2023-07-02T18:01:55.696Z,101291.69
2023-07-02T18:04:24.425Z,101281.88
2023-07-02T18:06:53.183Z,101281.44
2023-07-02T18:09:19.905Z,101285.81
2023-07-02T18:11:47.549Z,101279.56
2023-07-02T18:14:15.513Z,101273.50
2023-07-02T18:16:42.355Z,101284.81
2023-07-02T18:19:09.321Z,101277.00
2023-07-02T18:21:36.055Z,101275.47
2023-07-02T18:24:02.840Z,101280.75
2023-07-02T18:26:29.482Z,101277.50
2023-07-02T18:28:56.267Z,101281.81
2023-07-02T18:31:23.165Z,101271.19
2023-07-02T18:33:50.046Z,101268.63
2023-07-02T18:36:17.883Z,101279.72
2023-07-02T18:38:44.833Z,101283.44
2023-07-02T18:41:13.144Z,101286.00
2023-07-02T18:43:41.809Z,101282.66
2023-07-02T18:46:08.762Z,101286.13
2023-07-02T18:48:35.408Z,101293.16
2023-07-02T18:51:07.034Z,101287.75
2023-07-02T18:53:35.045Z,101272.75
2023-07-02T18:56:06.722Z,101276.47
2023-07-02T18:58:34.622Z,101282.00
2023-07-02T19:01:07.125Z,101275.34
2023-07-02T19:03:35.496Z,101273.91
2023-07-02T19:06:08.801Z,101279.50
2023-07-02T19:08:36.470Z,101288.38
2023-07-02T19:11:05.782Z,101281.81
2023-07-02T19:13:33.263Z,101289.44
2023-07-02T19:16:00.538Z,101279.16
2023-07-02T19:18:27.605Z,101284.03
2023-07-02T19:20:54.298Z,101281.78
2023-07-02T19:23:20.888Z,101285.28
2023-07-02T19:25:48.270Z,101288.81
2023-07-02T19:28:15.089Z,101284.09
2023-07-02T19:30:44.980Z,101284.19
2023-07-02T19:33:12.114Z,101284.03
2023-07-02T19:35:40.388Z,101294.56
2023-07-02T19:38:07.384Z,101291.16
2023-07-02T19:40:34.239Z,101286.44
2023-07-02T19:43:01.066Z,101293.53
2023-07-02T19:45:27.666Z,101289.44
2023-07-02T19:47:54.302Z,101278.34
2023-07-02T19:50:21.087Z,101284.94
2023-07-02T19:52:47.754Z,101286.88
2023-07-02T19:55:17.181Z,101291.84
2023-07-02T19:57:44.046Z,101291.09
2023-07-02T20:00:11.984Z,101289.25
2023-07-02T20:02:41.373Z,101299.22
2023-07-02T20:05:08.746Z,101295.13
2023-07-02T20:07:35.626Z,101298.72
2023-07-02T20:10:05.304Z,101305.09
2023-07-02T20:12:32.021Z,101296.44
2023-07-02T20:15:02.420Z,101294.44
2023-07-02T20:17:30.713Z,101289.75
2023-07-02T20:19:59.173Z,101285.44
2023-07-02T20:22:25.982Z,101294.97
2023-07-02T20:24:52.912Z,101284.53
2023-07-02T20:27:22.258Z,101284.53
2023-07-02T20:29:51.452Z,101290.91
2023-07-02T20:32:20.439Z,101282.50
2023-07-02T20:34:50.685Z,101282.72
2023-07-02T20:37:19.433Z,101284.00
2023-07-02T20:39:47.435Z,101289.81
2023-07-02T20:42:16.267Z,101284.63
2023-07-02T20:44:50.307Z,101291.25
2023-07-02T20:47:22.291Z,101292.31
2023-07-02T20:49:51.213Z,101294.38
2023-07-02T20:52:19.132Z,101285.16
2023-07-02T20:54:45.870Z,101282.75
2023-07-02T20:57:12.936Z,101297.34
2023-07-02T20:59:39.472Z,101291.59
2023-07-02T21:02:06.126Z,101280.28
2023-07-02T21:04:32.844Z,101292.63
2023-07-02T21:06:59.478Z,101284.22
2023-07-02T21:09:28.324Z,101282.41
2023-07-02T21:11:54.966Z,101292.28
2023-07-02T21:14:21.584Z,101289.19
2023-07-02T21:16:50.200Z,101287.13
2023-07-02T21:19:17.998Z,101278.53
2023-07-02T21:21:47.245Z,101282.88
2023-07-02T21:24:15.574Z,101281.28
2023-07-02T21:26:42.769Z,101290.34
2023-07-02T21:29:09.745Z,101288.09
2023-07-02T21:31:36.445Z,101286.88
2023-07-02T21:34:03.401Z,101286.06
2023-07-02T21:36:31.565Z,101285.88
2023-07-02T21:38:58.206Z,101282.19
2023-07-02T21:41:29.318Z,101288.72
2023-07-02T21:43:56.436Z,101292.22
2023-07-02T21:46:23.246Z,101292.66
2023-07-02T21:48:50.135Z,101271.75
2023-07-02T21:51:18.413Z,101284.47
2023-07-02T21:53:45.098Z,101285.53
2023-07-02T21:56:11.690Z,101287.16
2023-07-02T21:58:38.204Z,101277.91
2023-07-02T22:01:04.878Z,101271.38
2023-07-02T22:03:31.724Z,101277.31
2023-07-02T22:05:59.041Z,101265.19
2023-07-02T22:08:25.835Z,101273.66
2023-07-02T22:10:55.238Z,101265.84
2023-07-02T22:13:24.140Z,101268.53
2023-07-02T22:15:51.208Z,101254.81
2023-07-02T22:18:19.028Z,101271.25
2023-07-02T22:20:46.980Z,101265.50
2023-07-02T22:23:14.199Z,101267.13
2023-07-02T22:25:45.862Z,101260.16
2023-07-02T22:28:12.919Z,101262.03
2023-07-02T22:30:39.579Z,101267.56
2023-07-02T22:33:06.199Z,101269.00
2023-07-02T22:35:33.240Z,101262.00
2023-07-02T22:38:01.364Z,101257.53
2023-07-02T22:40:28.223Z,101250.31
2023-07-02T22:42:54.909Z,101254.63
2023-07-02T22:45:22.857Z,101249.72
2023-07-02T22:47:49.514Z,101247.63
2023-07-02T22:50:17.650Z,101243.56
2023-07-02T22:52:48.044Z,101238.88
2023-07-02T22:55:15.240Z,101233.53
2023-07-02T22:57:45.200Z,101221.81
2023-07-02T23:00:16.878Z,101224.09
2023-07-02T23:02:45.871Z,101222.47
2023-07-02T23:05:15.996Z,101215.09
2023-07-02T23:07:46.178Z,101217.13
2023-07-02T23:10:14.491Z,101212.19
2023-07-02T23:12:43.781Z,101210.53
2023-07-02T23:15:14.888Z,101209.34
2023-07-02T23:17:46.965Z,101205.22
2023-07-02T23:20:15.547Z,101199.88
2023-07-02T23:22:43.512Z,101194.97
2023-07-02T23:25:13.700Z,101198.47
2023-07-02T23:27:41.857Z,101193.53
2023-07-02T23:30:15.602Z,101198.69
2023-07-02T23:32:42.447Z,101184.13
2023-07-02T23:35:10.073Z,101183.28
2023-07-02T23:37:37.889Z,101184.38
2023-07-02T23:40:10.028Z,101186.66
2023-07-02T23:42:38.137Z,101181.31
2023-07-02T23:45:07.296Z,101176.25
2023-07-02T23:47:34.284Z,101168.25
2023-07-02T23:50:01.718Z,101170.34
2023-07-02T23:52:28.785Z,101165.00
2023-07-02T23:54:55.411Z,101142.81
2023-07-02T23:57:22.140Z,101134.81
2023-07-02T23:59:52.834Z,101134.81
